createdAt,value
2022-12-01T00:01:28.879Z,52.42
2022-12-01T00:03:56.072Z,45.45
2022-12-01T00:06:23.469Z,46.92
2022-12-01T00:09:14.063Z,49.75
2022-12-01T00:11:44.862Z,45.78
2022-12-01T00:14:11.959Z,50.95
2022-12-01T00:16:41.361Z,52.15
2022-12-01T00:19:11.845Z,42.75
2022-12-01T00:21:39.019Z,43.38
2022-12-01T00:24:06.367Z,45.00
2022-12-01T00:26:33.885Z,55.38
2022-12-01T00:29:01.489Z,54.50
2022-12-01T00:31:29.177Z,51.72
2022-12-01T00:33:56.867Z,48.17
2022-12-01T00:36:24.308Z,45.92
2022-12-01T00:38:55.763Z,48.95
2022-12-01T00:41:23.373Z,47.70
2022-12-01T00:43:53.010Z,47.55
2022-12-01T00:46:20.198Z,45.63
2022-12-01T00:48:47.750Z,51.53
2022-12-01T00:51:18.561Z,50.10
2022-12-01T00:53:46.055Z,50.45
2022-12-01T00:56:13.267Z,49.53
2022-12-01T00:58:40.320Z,50.75
2022-12-01T01:01:09.264Z,50.45
2022-12-01T01:03:36.320Z,51.70
2022-12-01T01:06:10.180Z,48.88
2022-12-01T01:08:39.241Z,43.70
2022-12-01T01:11:09.183Z,50.63
2022-12-01T01:13:37.041Z,47.47
2022-12-01T01:16:06.592Z,47.35
2022-12-01T01:18:33.996Z,50.28
2022-12-01T01:21:03.303Z,45.50
2022-12-01T01:23:30.794Z,43.95
2022-12-01T01:26:11.798Z,42.95
2022-12-01T01:28:42.565Z,46.13
2022-12-01T01:31:11.446Z,48.33
2022-12-01T01:33:41.855Z,43.63
2022-12-01T01:36:12.622Z,47.72
2022-12-01T01:38:43.051Z,43.63
2022-12-01T01:41:13.984Z,40.72
2022-12-01T01:43:41.038Z,44.85
2022-12-01T01:46:11.378Z,45.72
2022-12-01T01:48:43.365Z,45.63
2022-12-01T01:51:11.041Z,44.00
2022-12-01T01:53:38.743Z,45.70
2022-12-01T01:56:08.514Z,46.67
2022-12-01T01:58:48.151Z,44.05
2022-12-01T02:01:18.492Z,48.42
2022-12-01T02:03:46.155Z,44.25
2022-12-01T02:06:13.705Z,44.53
2022-12-01T02:08:41.103Z,45.90
2022-12-01T02:11:11.246Z,46.80
2022-12-01T02:13:47.347Z,47.70
2022-12-01T02:16:34.816Z,46.83
2022-12-01T02:19:02.372Z,51.47
2022-12-01T02:21:48.068Z,51.25
2022-12-01T02:24:16.475Z,52.10
2022-12-01T02:26:52.814Z,47.83
2022-12-01T02:29:41.970Z,45.80
2022-12-01T02:32:32.701Z,55.70
2022-12-01T02:35:01.603Z,49.70
2022-12-01T02:37:47.021Z,52.65
2022-12-01T02:40:35.187Z,49.97
2022-12-01T02:43:06.616Z,49.83
2022-12-01T02:45:33.692Z,48.33
2022-12-01T02:48:04.315Z,52.88
2022-12-01T02:50:33.337Z,48.47
2022-12-01T02:53:02.046Z,50.17
2022-12-01T02:55:29.407Z,54.30
2022-12-01T02:57:56.759Z,45.55
2022-12-01T03:00:24.385Z,55.88
2022-12-01T03:03:11.204Z,52.38
2022-12-01T03:05:53.758Z,49.67
2022-12-01T03:08:45.113Z,52.00
2022-12-01T03:11:27.195Z,52.70
2022-12-01T03:13:54.640Z,49.28
2022-12-01T03:16:28.224Z,46.75
2022-12-01T03:18:58.069Z,52.38
2022-12-01T03:21:25.504Z,49.70
2022-12-01T03:23:58.624Z,54.10
2022-12-01T03:26:27.133Z,50.35
2022-12-01T03:28:57.030Z,48.60
2022-12-01T03:31:27.362Z,53.22
2022-12-01T03:34:01.190Z,49.60
2022-12-01T03:36:38.243Z,43.53
2022-12-01T03:39:10.184Z,46.47
2022-12-01T03:41:41.546Z,51.60
2022-12-01T03:44:11.028Z,52.70
2022-12-01T03:46:57.128Z,46.33
2022-12-01T03:49:25.729Z,49.00
2022-12-01T03:51:59.435Z,45.17
2022-12-01T03:54:34.579Z,50.58
2022-12-01T03:57:04.995Z,50.33
2022-12-01T03:59:35.842Z,46.38
2022-12-01T04:02:03.135Z,42.50
2022-12-01T04:04:30.578Z,49.80
2022-12-01T04:06:57.902Z,57.15
2022-12-01T04:09:25.055Z,47.90
2022-12-01T04:12:11.247Z,47.22
2022-12-01T04:14:41.905Z,47.17
2022-12-01T04:17:12.126Z,49.25
2022-12-01T04:19:39.357Z,48.22
2022-12-01T04:22:06.431Z,46.83
2022-12-01T04:24:33.562Z,47.03
2022-12-01T04:27:00.743Z,42.50
2022-12-01T04:29:27.906Z,48.83
2022-12-01T04:31:55.497Z,43.33
2022-12-01T04:34:22.735Z,45.65
2022-12-01T04:36:50.079Z,40.72
2022-12-01T04:39:17.727Z,44.22
2022-12-01T04:41:45.183Z,46.55
2022-12-01T04:44:12.536Z,49.20
2022-12-01T04:46:42.718Z,48.15
2022-12-01T04:49:10.756Z,52.25
2022-12-01T04:51:39.981Z,46.63
2022-12-01T04:54:07.085Z,49.13
2022-12-01T04:56:34.220Z,45.90
2022-12-01T04:59:01.694Z,50.85
2022-12-01T05:01:29.156Z,43.40
2022-12-01T05:03:56.696Z,49.28
2022-12-01T05:06:25.232Z,51.03
2022-12-01T05:08:58.061Z,51.35
2022-12-01T05:11:25.459Z,51.07
2022-12-01T05:13:52.791Z,43.40
2022-12-01T05:16:29.010Z,48.55
2022-12-01T05:19:17.624Z,50.85
2022-12-01T05:21:45.647Z,47.95
2022-12-01T05:24:13.739Z,45.28
2022-12-01T05:26:42.006Z,52.42
2022-12-01T05:29:12.901Z,47.13
2022-12-01T05:31:40.814Z,51.85
2022-12-01T05:34:11.411Z,51.83
2022-12-01T05:36:39.163Z,41.00
2022-12-01T05:39:06.644Z,50.17
2022-12-01T05:41:33.784Z,48.30
2022-12-01T05:44:01.348Z,47.35
2022-12-01T05:46:30.329Z,51.42
2022-12-01T05:48:58.240Z,51.67
2022-12-01T05:51:35.075Z,50.58
2022-12-01T05:54:11.479Z,53.78
2022-12-01T05:56:38.918Z,58.78
2022-12-01T05:59:05.976Z,57.35
2022-12-01T06:01:33.309Z,52.60
2022-12-01T06:04:01.086Z,52.75
2022-12-01T06:06:28.501Z,47.72
2022-12-01T06:08:55.583Z,58.45
2022-12-01T06:11:23.401Z,58.70
2022-12-01T06:13:53.690Z,53.45
2022-12-01T06:16:27.039Z,48.72
2022-12-01T06:18:54.674Z,47.13
2022-12-01T06:21:22.173Z,51.78
2022-12-01T06:23:50.020Z,55.15
2022-12-01T06:26:17.092Z,55.83
2022-12-01T06:28:45.670Z,48.50
2022-12-01T06:31:14.088Z,52.45
2022-12-01T06:33:41.442Z,51.35
2022-12-01T06:36:13.212Z,49.00
2022-12-01T06:38:42.239Z,57.17
2022-12-01T06:41:12.829Z,61.88
2022-12-01T06:43:43.103Z,60.30
2022-12-01T06:46:13.653Z,56.53
2022-12-01T06:48:43.478Z,63.00
2022-12-01T06:51:11.079Z,62.13
2022-12-01T06:53:42.114Z,54.45
2022-12-01T06:56:12.618Z,56.33
2022-12-01T06:58:43.560Z,62.15
2022-12-01T07:01:15.112Z,61.08
2022-12-01T07:03:43.342Z,59.10
2022-12-01T07:06:10.557Z,59.75
2022-12-01T07:08:46.708Z,71.47
2022-12-01T07:11:17.601Z,61.38
2022-12-01T07:16:49.374Z,61.53
2022-12-01T07:19:17.369Z,60.75
2022-12-01T07:21:45.148Z,68.50
2022-12-01T07:24:15.478Z,61.13
2022-12-01T07:26:43.550Z,62.47
2022-12-01T07:29:11.694Z,70.25
2022-12-01T07:31:39.366Z,64.43
2022-12-01T07:34:11.475Z,70.57
2022-12-01T07:36:38.817Z,81.50
2022-12-01T07:39:14.842Z,67.72
2022-12-01T07:41:48.816Z,72.25
2022-12-01T07:44:18.287Z,63.25
2022-12-01T07:46:45.696Z,62.80
2022-12-01T07:49:18.555Z,68.43
2022-12-01T07:55:01.225Z,80.70
2022-12-01T07:57:20.522Z,76.95
2022-12-01T07:59:55.065Z,77.80
2022-12-01T08:02:22.557Z,81.45
2022-12-01T08:05:06.437Z,87.55
2022-12-01T08:12:43.216Z,79.82
2022-12-01T08:15:13.853Z,82.78
2022-12-01T08:18:03.900Z,83.22
2022-12-01T08:20:34.030Z,75.25
2022-12-01T08:23:06.928Z,76.15
2022-12-01T08:25:34.527Z,78.00
2022-12-01T08:28:06.702Z,82.95
2022-12-01T08:30:34.240Z,70.45
2022-12-01T08:33:05.524Z,86.53
2022-12-01T08:35:39.038Z,75.60
2022-12-01T08:40:42.297Z,79.88
2022-12-01T08:43:34.793Z,71.90
2022-12-01T08:46:01.870Z,78.25
2022-12-01T08:48:32.863Z,71.03
2022-12-01T08:51:11.048Z,81.82
2022-12-01T08:53:45.487Z,69.97
2022-12-01T08:56:24.474Z,70.50
2022-12-01T08:58:52.390Z,79.05
2022-12-01T09:01:20.116Z,72.15
2022-12-01T09:03:48.067Z,72.75
2022-12-01T09:06:19.579Z,75.93
2022-12-01T09:08:48.568Z,76.53
2022-12-01T09:11:21.144Z,72.90
2022-12-01T09:13:54.446Z,73.50
2022-12-01T09:16:22.683Z,73.10
2022-12-01T09:18:50.435Z,81.53
2022-12-01T09:21:21.274Z,77.45
2022-12-01T09:23:51.477Z,63.53
2022-12-01T09:26:22.302Z,80.32
2022-12-01T09:28:59.763Z,78.45
2022-12-01T09:31:33.902Z,74.57
2022-12-01T09:34:05.959Z,72.00
2022-12-01T09:36:48.761Z,66.57
2022-12-01T09:39:19.928Z,67.40
2022-12-01T09:41:53.676Z,70.65
2022-12-01T09:44:28.141Z,64.47
2022-12-01T09:47:02.504Z,77.47
2022-12-01T09:49:53.673Z,70.90
2022-12-01T09:52:36.896Z,77.20
2022-12-01T09:55:10.482Z,79.75
2022-12-01T10:00:22.893Z,70.18
2022-12-01T10:03:10.006Z,72.95
2022-12-01T10:09:13.459Z,67.88
2022-12-01T10:11:54.136Z,65.35
2022-12-01T10:14:22.739Z,64.45
2022-12-01T10:16:59.337Z,66.95
2022-12-01T10:19:50.751Z,66.93
2022-12-01T10:22:28.358Z,64.50
2022-12-01T10:24:59.224Z,71.03
2022-12-01T10:27:38.868Z,64.35
2022-12-01T10:30:09.534Z,67.68
2022-12-01T10:32:40.395Z,66.03
2022-12-01T10:35:09.644Z,70.05
2022-12-01T10:37:44.942Z,62.42
2022-12-01T10:40:20.681Z,65.03
2022-12-01T10:42:55.301Z,63.40
2022-12-01T10:45:34.204Z,65.30
2022-12-01T10:48:27.548Z,57.38
2022-12-01T10:51:00.080Z,56.17
2022-12-01T10:53:30.689Z,58.93
2022-12-01T10:56:10.603Z,62.65
2022-12-01T10:58:49.821Z,54.75
2022-12-01T11:01:20.066Z,60.65
2022-12-01T11:03:52.408Z,64.47
2022-12-01T11:06:28.159Z,52.35
2022-12-01T11:08:59.441Z,56.22
2022-12-01T11:11:31.577Z,58.28
2022-12-01T11:14:01.704Z,57.92
2022-12-01T11:16:43.882Z,60.47
2022-12-01T11:19:30.970Z,59.35
2022-12-01T11:21:59.440Z,56.65
2022-12-01T11:24:31.576Z,55.25
2022-12-01T11:27:02.447Z,54.67
2022-12-01T11:29:32.447Z,57.05
2022-12-01T11:32:00.789Z,53.47
2022-12-01T11:34:31.733Z,56.65
2022-12-01T11:37:04.236Z,55.65
2022-12-01T11:39:48.617Z,53.20
2022-12-01T11:42:17.966Z,54.45
2022-12-01T11:44:53.648Z,54.08
2022-12-01T11:50:25.606Z,51.00
2022-12-01T11:53:01.669Z,57.20
2022-12-01T11:55:30.755Z,54.67
2022-12-01T11:58:03.828Z,45.53
2022-12-01T12:00:39.243Z,50.92
2022-12-01T12:03:06.550Z,54.38
2022-12-01T12:06:01.373Z,47.58
2022-12-01T12:08:52.085Z,46.17
2022-12-01T12:11:19.628Z,47.90
2022-12-01T12:14:29.281Z,42.30
2022-12-01T12:17:20.550Z,50.35
2022-12-01T12:20:07.812Z,48.58
2022-12-01T12:22:55.894Z,41.72
2022-12-01T12:25:46.429Z,42.40
2022-12-01T12:28:32.447Z,39.55
2022-12-01T12:31:05.578Z,48.50
2022-12-01T12:33:39.159Z,40.15
2022-12-01T12:36:13.428Z,36.67
2022-12-01T12:38:49.294Z,46.10
2022-12-01T12:41:22.205Z,46.65
2022-12-01T12:43:49.546Z,40.35
2022-12-01T12:46:29.527Z,39.35
2022-12-01T12:49:19.202Z,45.67
2022-12-01T12:51:49.733Z,41.17
2022-12-01T12:54:20.122Z,45.05
2022-12-01T12:56:53.028Z,44.55
2022-12-01T12:59:39.606Z,41.67
2022-12-01T13:02:07.201Z,43.25
2022-12-01T13:04:49.944Z,42.17
2022-12-01T13:07:17.146Z,48.47
2022-12-01T13:09:50.094Z,44.83
2022-12-01T13:12:32.183Z,43.53
2022-12-01T13:15:06.801Z,44.08
2022-12-01T13:17:39.272Z,40.13
2022-12-01T13:20:07.135Z,45.55
2022-12-01T13:22:35.787Z,42.25
2022-12-01T13:25:09.291Z,41.40
2022-12-01T13:30:03.919Z,42.90
2022-12-01T13:32:34.317Z,37.72
2022-12-01T13:35:02.495Z,39.35
2022-12-01T13:37:35.786Z,39.88
2022-12-01T13:40:23.718Z,39.45
2022-12-01T13:43:11.484Z,43.55
2022-12-01T13:45:40.730Z,41.60
2022-12-01T13:48:26.281Z,45.40
2022-12-01T13:51:01.282Z,39.55
2022-12-01T13:53:30.572Z,43.83
2022-12-01T13:56:03.956Z,41.58
2022-12-01T13:58:37.148Z,36.60
2022-12-01T14:01:23.134Z,41.80
2022-12-01T14:04:04.127Z,43.92
2022-12-01T14:06:46.699Z,43.28
2022-12-01T14:09:32.658Z,40.42
2022-12-01T14:12:03.774Z,42.22
2022-12-01T14:14:38.361Z,41.65
2022-12-01T14:17:05.969Z,41.88
2022-12-01T14:19:53.176Z,43.30
2022-12-01T14:22:33.979Z,40.17
2022-12-01T14:25:02.315Z,36.67
2022-12-01T14:27:41.195Z,42.92
2022-12-01T14:30:27.371Z,48.58
2022-12-01T14:33:15.622Z,38.83
2022-12-01T14:35:43.049Z,39.17
2022-12-01T14:38:13.390Z,40.10
2022-12-01T14:40:41.231Z,47.10
2022-12-01T14:43:32.017Z,40.50
2022-12-01T14:46:11.495Z,37.88
2022-12-01T14:48:41.779Z,39.78
2022-12-01T14:51:13.304Z,38.65
2022-12-01T14:53:43.150Z,44.50
2022-12-01T14:56:18.632Z,44.58
2022-12-01T14:59:00.002Z,41.33
2022-12-01T15:01:36.361Z,40.80
2022-12-01T15:04:04.688Z,39.47
2022-12-01T15:06:33.336Z,37.88
2022-12-01T15:09:36.541Z,40.83
2022-12-01T15:12:10.364Z,41.67
2022-12-01T15:14:39.154Z,44.60
2022-12-01T15:17:34.344Z,46.72
2022-12-01T15:20:04.371Z,40.75
2022-12-01T15:22:32.600Z,47.70
2022-12-01T15:25:07.987Z,48.90
2022-12-01T15:27:35.581Z,43.83
2022-12-01T15:30:04.540Z,44.50
2022-12-01T15:32:33.426Z,42.83
2022-12-01T15:35:03.534Z,44.80
2022-12-01T15:37:35.434Z,44.05
2022-12-01T15:43:14.239Z,40.10
2022-12-01T15:46:04.990Z,34.72
2022-12-01T15:48:34.043Z,41.30
2022-12-01T15:51:10.606Z,44.83
2022-12-01T15:53:40.927Z,39.10
2022-12-01T15:56:09.371Z,37.58
2022-12-01T15:58:41.369Z,41.00
2022-12-01T16:01:13.394Z,40.20
2022-12-01T16:03:46.455Z,46.63
2022-12-01T16:06:13.884Z,47.35
2022-12-01T16:08:41.461Z,41.95
2022-12-01T16:11:15.319Z,41.95
2022-12-01T16:13:42.454Z,44.35
2022-12-01T16:16:29.000Z,40.35
2022-12-01T16:19:06.172Z,41.28
2022-12-01T16:21:35.302Z,44.67
2022-12-01T16:24:05.092Z,43.70
2022-12-01T16:26:33.378Z,41.30
2022-12-01T16:29:00.638Z,41.42
2022-12-01T16:31:31.074Z,38.30
2022-12-01T16:34:14.005Z,38.95
2022-12-01T16:36:53.524Z,37.72
2022-12-01T16:39:20.933Z,42.00
2022-12-01T16:41:48.522Z,38.10
2022-12-01T16:44:31.376Z,44.95
2022-12-01T16:46:59.304Z,40.05
2022-12-01T16:49:29.423Z,38.28
2022-12-01T16:52:01.135Z,43.70
2022-12-01T16:54:31.017Z,38.45
2022-12-01T16:56:58.366Z,38.47
2022-12-01T16:59:25.710Z,44.20
2022-12-01T17:01:53.300Z,39.90
2022-12-01T17:04:20.849Z,41.78
2022-12-01T17:06:48.319Z,42.97
2022-12-01T17:09:15.766Z,39.60
2022-12-01T17:11:43.082Z,40.13
2022-12-01T17:14:10.478Z,45.67
2022-12-01T17:16:40.451Z,45.92
2022-12-01T17:19:08.133Z,40.63
2022-12-01T17:21:35.618Z,39.40
2022-12-01T17:24:03.278Z,43.03
2022-12-01T17:26:31.123Z,41.17
2022-12-01T17:29:01.058Z,38.72
2022-12-01T17:31:28.309Z,52.08
2022-12-01T17:33:56.751Z,44.50
2022-12-01T17:36:24.254Z,47.88
2022-12-01T17:38:53.855Z,45.45
2022-12-01T17:41:27.000Z,49.67
2022-12-01T17:43:54.991Z,42.13
2022-12-01T17:46:22.278Z,37.80
2022-12-01T17:48:49.426Z,36.67
2022-12-01T17:51:16.815Z,35.67
2022-12-01T17:53:44.270Z,32.53
2022-12-01T17:56:12.813Z,31.20
2022-12-01T17:58:40.097Z,35.28
2022-12-01T18:01:07.896Z,44.10
2022-12-01T18:03:35.284Z,37.28
2022-12-01T18:06:03.079Z,37.67
2022-12-01T18:08:31.772Z,38.55
2022-12-01T18:11:03.357Z,38.15
2022-12-01T18:13:30.847Z,36.80
2022-12-01T18:15:58.291Z,37.70
2022-12-01T18:18:26.084Z,40.75
2022-12-01T18:20:56.112Z,34.28
2022-12-01T18:23:23.885Z,35.20
2022-12-01T18:25:55.651Z,38.47
2022-12-01T18:28:22.972Z,37.40
2022-12-01T18:30:50.396Z,36.88
2022-12-01T18:33:18.192Z,32.88
2022-12-01T18:35:45.492Z,28.75
2022-12-01T18:38:12.585Z,35.38
2022-12-01T18:40:40.292Z,34.58
2022-12-01T18:43:07.418Z,45.33
2022-12-01T18:45:34.868Z,30.88
2022-12-01T18:48:02.784Z,31.35
2022-12-01T18:50:31.571Z,30.35
2022-12-01T18:53:01.950Z,32.88
2022-12-01T18:55:29.381Z,36.10
2022-12-01T18:57:57.525Z,35.85
2022-12-01T19:00:25.040Z,27.92
2022-12-01T19:02:54.891Z,29.08
2022-12-01T19:05:22.248Z,30.48
2022-12-01T19:07:49.437Z,32.50
2022-12-01T19:10:17.196Z,39.22
2022-12-01T19:12:44.693Z,32.63
2022-12-01T19:15:12.083Z,31.65
2022-12-01T19:17:39.802Z,37.35
2022-12-01T19:20:08.179Z,37.45
2022-12-01T19:22:35.439Z,39.88
2022-12-01T19:25:03.566Z,47.60
2022-12-01T19:27:30.958Z,42.08
2022-12-01T19:30:01.514Z,41.75
2022-12-01T19:32:33.243Z,44.72
2022-12-01T19:35:01.304Z,42.20
2022-12-01T19:37:28.804Z,43.50
2022-12-01T19:40:03.203Z,39.35
2022-12-01T19:42:30.953Z,46.75
2022-12-01T19:45:01.437Z,41.78
2022-12-01T19:47:32.945Z,39.03
2022-12-01T19:50:00.830Z,45.20
2022-12-01T19:52:29.172Z,42.70
2022-12-01T19:54:56.694Z,36.67
2022-12-01T19:57:24.151Z,46.03
2022-12-01T19:59:54.850Z,47.05
2022-12-01T20:02:28.955Z,39.13
2022-12-01T20:04:58.194Z,41.35
2022-12-01T20:07:25.413Z,41.17
2022-12-01T20:09:56.174Z,47.05
2022-12-01T20:12:23.445Z,44.85
2022-12-01T20:14:51.008Z,41.35
2022-12-01T20:17:18.381Z,39.72
2022-12-01T20:19:46.375Z,42.63
2022-12-01T20:22:13.865Z,40.60
2022-12-01T20:24:42.024Z,46.35
2022-12-01T20:27:10.202Z,49.90
2022-12-01T20:29:41.227Z,55.13
2022-12-01T20:32:08.770Z,43.35
2022-12-01T20:34:36.943Z,54.17
2022-12-01T20:37:04.936Z,49.47
2022-12-01T20:39:35.054Z,56.50
2022-12-01T20:42:02.318Z,59.05
2022-12-01T20:44:30.232Z,53.53
2022-12-01T20:46:58.654Z,67.97
2022-12-01T20:49:26.264Z,64.50
2022-12-01T20:51:56.459Z,59.72
2022-12-01T20:54:28.211Z,70.15
2022-12-01T20:56:55.994Z,61.47
2022-12-01T20:59:27.057Z,64.18
2022-12-01T21:01:54.453Z,58.67
2022-12-01T21:04:24.687Z,54.97
2022-12-01T21:06:53.680Z,55.15
2022-12-01T21:09:21.568Z,52.50
2022-12-01T21:12:10.613Z,55.33
2022-12-01T21:14:43.203Z,54.67
2022-12-01T21:17:19.758Z,54.37
2022-12-01T21:20:01.965Z,56.60
2022-12-01T21:22:29.520Z,54.88
2022-12-01T21:25:02.098Z,62.45
2022-12-01T21:27:31.237Z,54.33
2022-12-01T21:29:58.740Z,52.17
2022-12-01T21:32:30.427Z,56.15
2022-12-01T21:35:02.069Z,60.15
2022-12-01T21:37:29.820Z,52.58
2022-12-01T21:39:57.697Z,58.55
2022-12-01T21:42:29.166Z,58.97
2022-12-01T21:44:56.731Z,57.55
2022-12-01T21:47:26.205Z,60.83
2022-12-01T21:49:55.229Z,50.03
2022-12-01T21:52:25.945Z,57.25
2022-12-01T21:55:09.800Z,55.67
2022-12-01T21:57:43.037Z,51.30
2022-12-01T22:02:54.366Z,55.47
2022-12-01T22:05:34.266Z,51.22
2022-12-01T22:08:11.047Z,55.25
2022-12-01T22:10:58.616Z,62.33
2022-12-01T22:13:45.983Z,58.58
2022-12-01T22:16:15.549Z,57.63
2022-12-01T22:18:45.092Z,57.10
2022-12-01T22:21:38.764Z,63.22
2022-12-01T22:24:09.003Z,59.25
2022-12-01T22:26:38.368Z,56.90
2022-12-01T22:29:17.861Z,55.38
2022-12-01T22:31:44.972Z,58.63
2022-12-01T22:34:12.547Z,62.13
2022-12-01T22:36:40.272Z,61.40
2022-12-01T22:39:12.350Z,65.25
2022-12-01T22:41:39.652Z,69.00
2022-12-01T22:44:14.665Z,64.18
2022-12-01T22:46:42.626Z,61.22
2022-12-01T22:49:28.493Z,62.42
2022-12-01T22:52:01.324Z,61.53
2022-12-01T22:54:31.551Z,63.60
2022-12-01T22:57:09.718Z,63.35
2022-12-01T22:59:38.694Z,64.13
2022-12-01T23:02:20.959Z,62.78
2022-12-01T23:04:50.506Z,55.60
2022-12-01T23:07:18.175Z,57.60
2022-12-01T23:09:46.087Z,61.20
2022-12-01T23:12:13.207Z,65.57
2022-12-01T23:14:48.660Z,59.65
2022-12-01T23:17:29.633Z,61.80
2022-12-01T23:20:15.088Z,68.25
2022-12-01T23:22:42.166Z,65.78
2022-12-01T23:25:17.160Z,65.03
2022-12-01T23:27:45.346Z,64.22
2022-12-01T23:30:14.249Z,63.30
2022-12-01T23:32:41.722Z,66.45
2022-12-01T23:35:14.013Z,69.00
2022-12-01T23:37:42.746Z,73.30
2022-12-01T23:40:16.249Z,71.03
2022-12-01T23:45:20.117Z,69.45
2022-12-01T23:47:47.339Z,69.40
2022-12-01T23:50:23.405Z,82.07
2022-12-01T23:52:50.779Z,78.35
2022-12-01T23:55:23.263Z,72.75
2022-12-01T23:57:50.993Z,80.18
